X  Close Metar Aviation Weather Data     EGLF Farnborough Airport
Temperature
-1°C Temperature
-1°C Dewpoint
100% Humidity



Wind
3 MPH
5 KM/H
1 M/S
3 KTS



110°
ESE
Current Conditions

Mist Mist
Pressure 995.94 (hPa) - 29.41 (inHg)
Visibility 3.1 (mile) - 5 (km)
Airport
Airport-code EGLF

Location: Farnborough Airport
Distance: 5 (mi)

Metar:
EGLF 250750Z 11003KT 5000 BR FEW034 M01/M01 Q0996

Time: 25-02-2024 07:50 GMT